Home   Weather   Netherlands   Ede   Past weeks
Flag for Netherlands

Past Weather in Ede, Netherlands — Yesterday and Last 2 Weeks

Currently: 37 °F. Fog. (Weather station: Deelen, Netherlands). See more current weather

Past Weather in Ede — Graph

°F

Ede Temperature Yesterday

Maximum temperature yesterday: 46 °F (at 1:55 pm)
Minimum temperature yesterday: 32 °F (at 11:25 pm)
Average temperature yesterday: 43 °F

High & Low Weather Summary for the Past Weeks

 TemperatureHumidityPressure
High50 °F (Feb 3, 10:25 am)100% (Jan 23, 1:55 am)30.77 "Hg (Jan 23, 1:55 am)
Low28 °F (Jan 25, 11:25 am)61% (Jan 28, 2:55 pm)29.95 "Hg (Jan 30, 3:25 am)
Average39 °F86%30.37 "Hg
* Reported Jan 22 9:25 am — Feb 6 9:55 am, Ede. Weather by CustomWeather, © 2023

Note: Actual official high and low records may vary slightly from our data, if they occured in-between our weather recording intervals... More about our weather records

Ede Weather History for the Previous 24 Hours

Scroll right to see more
 ConditionsComfort  
Time TempWeatherWind HumidityBarometerVisibility
9:55 am
Mon, Feb 6
32 °FFog.2 mph100%30.74 "Hg1 mi
9:25 am32 °FIce fog.1 mph100%30.74 "Hg1 mi
8:55 am30 °FIce fog.1 mph100%30.77 "Hg0 mi
8:25 am30 °FIce fog.1 mph100%30.77 "Hg1 mi
7:55 am30 °FIce fog.No wind93%30.77 "Hg1 mi
6:55 am30 °FIce fog.1 mph100%30.77 "Hg1 mi
6:25 am30 °FIce fog.1 mph100%30.77 "Hg1 mi
5:55 am30 °FIce fog.2 mph100%30.77 "Hg1 mi
5:25 am30 °FIce fog.2 mph100%30.77 "Hg1 mi
4:55 am30 °FIce fog.2 mph100%30.77 "Hg1 mi
3:55 am34 °FFog.3 mph100%30.77 "Hg3 mi
2:55 am30 °FIce fog.3 mph93%30.77 "Hg2 mi
2:25 am30 °FIce fog.5 mph93%30.77 "Hg1 mi
1:55 am30 °FIce fog.1 mph100%30.77 "Hg1 mi
12:25 am34 °FFog.7 mph100%30.77 "Hg4 mi
11:55 pm
Sun, Feb 5
34 °FFog.6 mph100%30.77 "Hg3 mi
11:25 pm32 °FIce fog.3 mph100%30.77 "Hg1 mi
10:55 pm36 °FFog.5 mph93%30.77 "Hg4 mi
10:25 pm36 °FFog.6 mph93%30.77 "Hg4 mi
9:55 pm37 °FFog.7 mph93%30.77 "Hg6 mi
9:25 pm39 °FChilly.7 mph87%30.77 "HgN/A
8:55 pm39 °FChilly.8 mph87%30.74 "HgN/A
8:25 pm41 °FPassing clouds.10 mph87%30.74 "HgN/A
7:55 pm41 °FPartly cloudy.12 mph81%30.74 "HgN/A
6:55 pm43 °FPartly cloudy.9 mph76%30.74 "HgN/A
6:25 pm43 °FPartly cloudy.10 mph76%30.72 "HgN/A
5:55 pm45 °FMostly cloudy.10 mph66%30.72 "HgN/A
4:55 pm45 °FScattered clouds.17 mph71%30.69 "HgN/A
4:25 pm46 °FBroken clouds.13 mph66%30.69 "HgN/A
3:55 pm46 °FPartly sunny.13 mph66%30.69 "HgN/A
3:25 pm46 °FPartly sunny.14 mph66%30.69 "HgN/A
2:55 pm46 °FCloudy.16 mph66%30.66 "HgN/A
2:25 pm46 °FPartly sunny.21 mph66%30.66 "HgN/A
1:55 pm46 °FBroken clouds.17 mph71%30.66 "HgN/A
12:55 pm45 °FMore clouds than sun.18 mph81%30.66 "HgN/A
12:25 pm45 °FCloudy.20 mph81%30.66 "HgN/A
11:55 am45 °FBroken clouds.16 mph81%30.63 "HgN/A
Weather by CustomWeather, © 2023

See weather overview